Time;durP1;ratioP1;P1;durP2;ratioP2;P2;SDS_P1;SDS_P2;PMS_P1;PMS_P2;Temp;Humidity;BMP_temperature;BMP_pressure;BME280_temperature;BME280_humidity;BME280_pressure;Samples;Min_cycle;Max_cycle;Signal;HPM_P1;HPM_P2
2023/04/20 00:01:37;;;;;;;5.53;5.03;;;10.50;46.10;;;;;;5033804;28;20725;-49
2023/04/20 00:04:03;;;;;;;5.33;4.63;;;10.60;46.20;;;;;;5033478;28;20424;-49
2023/04/20 00:06:31;;;;;;;5.35;4.85;;;10.70;46.30;;;;;;5033537;28;20177;-49
2023/04/20 00:08:57;;;;;;;6.70;5.13;;;10.70;46.30;;;;;;5033286;28;20276;-48
2023/04/20 00:11:23;;;;;;;7.97;5.90;;;10.80;46.30;;;;;;5033486;28;20265;-48
2023/04/20 00:13:49;;;;;;;8.40;6.27;;;10.80;46.20;;;;;;5033254;28;20622;-49
2023/04/20 00:16:15;;;;;;;10.13;6.80;;;10.80;46.00;;;;;;5033542;28;20178;-49
2023/04/20 00:18:40;;;;;;;7.82;6.25;;;10.90;46.20;;;;;;5033498;28;20425;-49
2023/04/20 00:21:06;;;;;;;8.20;6.17;;;10.90;46.20;;;;;;5033419;28;20178;-50
2023/04/20 00:23:32;;;;;;;9.30;6.07;;;10.90;46.20;;;;;;5032862;28;20204;-49
2023/04/20 00:25:58;;;;;;;6.60;5.87;;;11.00;45.60;;;;;;5033103;28;20416;-49
2023/04/20 00:28:23;;;;;;;6.70;5.90;;;10.90;45.70;;;;;;5033125;28;20186;-48
2023/04/20 00:30:49;;;;;;;6.10;5.47;;;10.90;45.70;;;;;;5033010;28;20178;-49
2023/04/20 00:33:15;;;;;;;5.60;4.80;;;10.90;45.70;;;;;;5032746;28;20208;-50
2023/04/20 00:35:41;;;;;;;5.30;4.80;;;10.90;45.10;;;;;;5033029;28;20233;-49
2023/04/20 00:38:06;;;;;;;5.77;5.27;;;10.80;45.00;;;;;;5033029;28;20202;-49
2023/04/20 00:40:32;;;;;;;5.57;5.07;;;10.80;45.00;;;;;;5033119;28;20530;-49
2023/04/20 00:43:12;;;;;;;6.40;5.80;;;10.80;44.80;;;;;;5032615;28;20213;-49
2023/04/20 00:45:37;;;;;;;7.07;5.60;;;10.70;44.50;;;;;;5032759;28;20496;-48
2023/04/20 00:48:04;;;;;;;5.00;4.53;;;10.70;44.80;;;;;;5032645;28;20281;-48
2023/04/20 00:50:31;;;;;;;6.28;5.50;;;10.70;45.00;;;;;;5032658;28;20190;-49
2023/04/20 00:52:57;;;;;;;6.70;6.10;;;10.60;45.00;;;;;;5032303;28;20210;-48
2023/04/20 00:55:23;;;;;;;7.85;6.57;;;10.60;45.10;;;;;;5032856;28;20177;-48
2023/04/20 00:57:49;;;;;;;7.40;6.70;;;10.60;45.10;;;;;;5032665;28;20588;-49
2023/04/20 01:00:15;;;;;;;6.37;5.10;;;10.60;45.00;;;;;;5032743;28;20908;-49
2023/04/20 01:02:41;;;;;;;6.15;5.55;;;10.60;44.90;;;;;;5031628;28;20455;-48
2023/04/20 01:05:07;;;;;;;7.33;6.60;;;10.50;45.10;;;;;;5032661;28;20220;-49
2023/04/20 01:07:33;;;;;;;7.32;6.03;;;10.50;45.20;;;;;;5032603;28;20316;-48
2023/04/20 01:09:58;;;;;;;6.60;5.73;;;10.50;45.10;;;;;;5032570;28;20292;-49
2023/04/20 01:12:25;;;;;;;6.73;6.03;;;10.50;45.10;;;;;;5032067;28;20206;-48
2023/04/20 01:14:50;;;;;;;7.18;6.40;;;10.40;44.90;;;;;;5032572;28;20538;-48
2023/04/20 01:17:16;;;;;;;7.47;6.20;;;10.40;45.00;;;;;;5032271;28;20181;-48
2023/04/20 01:19:43;;;;;;;7.50;6.07;;;10.30;45.20;;;;;;5032050;28;20939;-49
2023/04/20 01:22:20;;;;;;;7.50;6.80;;;10.30;45.40;;;;;;5032245;28;20411;-48
2023/04/20 01:24:46;;;;;;;7.43;6.07;;;10.30;45.40;;;;;;5032337;28;20247;-48
2023/04/20 01:27:15;;;;;;;6.10;5.53;;;10.30;45.40;;;;;;5032365;28;20228;-48
2023/04/20 01:29:40;;;;;;;7.40;6.10;;;10.30;45.30;;;;;;5031902;28;20194;-49
2023/04/20 01:32:06;;;;;;;6.53;5.93;;;10.30;45.40;;;;;;5032009;28;20205;-49
2023/04/20 01:34:32;;;;;;;9.63;6.07;;;10.20;45.40;;;;;;5032338;28;20684;-48
2023/04/20 01:36:58;;;;;;;6.40;5.53;;;10.20;45.50;;;;;;5032162;28;20407;-48
2023/04/20 01:39:24;;;;;;;7.27;6.40;;;10.20;45.40;;;;;;5032248;28;20573;-48
2023/04/20 01:41:50;;;;;;;8.35;6.10;;;10.20;45.30;;;;;;5032045;28;20169;-48
2023/04/20 01:44:16;;;;;;;5.80;5.20;;;10.20;45.00;;;;;;5031932;28;20177;-48
2023/04/20 01:46:42;;;;;;;6.23;5.63;;;10.10;45.50;;;;;;5032188;28;20416;-49
2023/04/20 01:49:08;;;;;;;7.67;6.17;;;10.10;44.60;;;;;;5031810;28;20240;-49
2023/04/20 01:51:34;;;;;;;8.48;5.70;;;10.00;44.80;;;;;;5031944;28;20401;-49
2023/04/20 01:54:01;;;;;;;5.45;4.95;;;9.90;44.90;;;;;;5031812;28;20174;-48
2023/04/20 01:56:27;;;;;;;6.43;5.70;;;9.90;44.80;;;;;;5031976;28;20166;-48
2023/04/20 01:58:53;;;;;;;6.30;5.70;;;9.80;45.40;;;;;;5031795;28;20193;-48
2023/04/20 02:01:19;;;;;;;7.28;5.95;;;9.80;44.60;;;;;;5031754;28;20237;-49
2023/04/20 02:03:44;;;;;;;7.20;5.90;;;9.80;44.50;;;;;;5031699;28;20270;-49
2023/04/20 02:06:10;;;;;;;6.50;5.90;;;9.70;44.50;;;;;;5031988;28;20413;-48
2023/04/20 02:08:36;;;;;;;6.80;5.90;;;9.70;44.50;;;;;;5031720;28;20194;-49
2023/04/20 02:11:02;;;;;;;6.37;5.57;;;9.70;44.30;;;;;;5031722;28;20684;-48
2023/04/20 02:13:28;;;;;;;6.70;5.35;;;9.60;44.20;;;;;;5031717;28;20232;-48
2023/04/20 02:15:54;;;;;;;6.80;5.83;;;9.60;44.10;;;;;;5035540;28;20254;-48
2023/04/20 02:18:20;;;;;;;6.70;6.00;;;9.50;44.30;;;;;;5035689;28;20913;-49
2023/04/20 02:20:46;;;;;;;6.20;5.60;;;9.40;44.40;;;;;;5035668;28;20435;-49
2023/04/20 02:23:12;;;;;;;5.87;5.30;;;9.40;44.50;;;;;;5035358;28;20185;-49
2023/04/20 02:25:38;;;;;;;5.97;5.10;;;9.40;44.30;;;;;;5035342;28;20925;-49
2023/04/20 02:28:04;;;;;;;6.20;5.57;;;9.30;44.30;;;;;;5035184;28;20700;-48
2023/04/20 02:30:30;;;;;;;6.97;5.82;;;9.20;44.30;;;;;;5035244;28;20179;-48
2023/04/20 02:32:56;;;;;;;5.67;5.00;;;9.20;44.40;;;;;;5035246;28;20208;-48
2023/04/20 02:35:21;;;;;;;6.40;5.10;;;9.20;44.30;;;;;;5035480;28;20409;-48
2023/04/20 02:37:47;;;;;;;6.70;6.03;;;9.10;44.20;;;;;;5035178;28;20166;-49
2023/04/20 02:40:13;;;;;;;8.87;5.80;;;9.10;44.20;;;;;;5035098;28;20181;-48
2023/04/20 02:42:39;;;;;;;6.30;5.55;;;9.00;44.00;;;;;;5034821;28;20661;-48
2023/04/20 02:45:06;;;;;;;6.00;5.50;;;9.00;44.10;;;;;;5034984;28;20200;-49
2023/04/20 02:47:32;;;;;;;6.95;5.57;;;8.90;44.20;;;;;;5035097;28;20186;-48
2023/04/20 02:49:58;;;;;;;5.93;5.20;;;8.90;44.30;;;;;;5035104;28;20207;-48
2023/04/20 02:52:25;;;;;;;5.82;5.15;;;8.80;44.30;;;;;;5034902;28;20465;-48
2023/04/20 02:54:51;;;;;;;5.07;4.57;;;8.80;44.30;;;;;;5034948;28;20174;-49
2023/04/20 02:57:16;;;;;;;4.90;4.40;;;8.80;44.30;;;;;;5035029;28;20536;-49
2023/04/20 02:59:42;;;;;;;6.07;5.07;;;8.70;44.30;;;;;;5034770;28;20876;-48
2023/04/20 03:02:08;;;;;;;7.33;5.37;;;8.70;44.30;;;;;;5034719;28;20533;-48
2023/04/20 03:04:34;;;;;;;6.50;5.80;;;8.70;44.20;;;;;;5034705;28;20173;-48
2023/04/20 03:07:00;;;;;;;8.97;6.40;;;8.70;44.10;;;;;;5034777;28;20185;-49
2023/04/20 03:09:26;;;;;;;6.65;5.95;;;8.70;44.00;;;;;;5034545;28;20220;-48
2023/04/20 03:11:53;;;;;;;7.43;6.20;;;8.60;43.90;;;;;;5034282;28;20569;-49
2023/04/20 03:14:18;;;;;;;7.43;5.45;;;8.60;43.90;;;;;;5034399;28;20181;-48
2023/04/20 03:16:45;;;;;;;6.63;5.97;;;8.50;44.10;;;;;;5034740;28;20178;-48
2023/04/20 03:19:10;;;;;;;8.23;6.82;;;8.40;44.10;;;;;;5034380;28;20258;-48
2023/04/20 03:21:36;;;;;;;7.10;6.30;;;8.40;44.20;;;;;;5034405;28;20169;-48
2023/04/20 03:24:02;;;;;;;7.13;6.43;;;8.40;44.30;;;;;;5034258;28;20180;-48
2023/04/20 03:26:28;;;;;;;6.80;6.10;;;8.40;44.20;;;;;;5033517;28;20180;-49
2023/04/20 03:28:53;;;;;;;7.30;5.90;;;8.30;44.00;;;;;;5034085;28;20262;-49
2023/04/20 03:31:19;;;;;;;8.50;7.70;;;8.30;44.10;;;;;;5034162;28;20277;-48
2023/04/20 03:33:45;;;;;;;8.00;6.87;;;8.30;44.10;;;;;;5034166;28;20280;-48
2023/04/20 03:36:11;;;;;;;11.07;9.40;;;8.30;44.30;;;;;;5034081;28;20508;-48
2023/04/20 03:38:36;;;;;;;10.63;8.57;;;8.30;44.50;;;;;;5033991;28;20192;-49
2023/04/20 03:41:02;;;;;;;12.10;9.20;;;8.20;44.60;;;;;;5034029;28;20393;-49
2023/04/20 03:43:28;;;;;;;11.00;8.87;;;8.20;44.80;;;;;;5033723;28;20184;-48
2023/04/20 03:45:54;;;;;;;12.90;10.50;;;8.20;45.00;;;;;;5034207;28;20270;-48
2023/04/20 03:48:20;;;;;;;12.68;9.93;;;8.20;45.00;;;;;;5033825;28;20582;-49
2023/04/20 03:50:46;;;;;;;11.07;9.37;;;8.20;45.20;;;;;;5034025;28;20265;-48
2023/04/20 03:53:11;;;;;;;13.07;10.47;;;8.20;45.10;;;;;;5033472;28;20509;-48
2023/04/20 03:55:37;;;;;;;11.87;9.50;;;8.20;45.30;;;;;;5033761;28;20181;-49
2023/04/20 03:58:05;;;;;;;13.17;9.23;;;8.30;45.30;;;;;;5033519;28;20243;-48
2023/04/20 04:00:31;;;;;;;11.50;9.43;;;8.30;45.40;;;;;;5033959;28;20174;-48
2023/04/20 04:02:57;;;;;;;14.97;9.50;;;8.30;45.30;;;;;;5033650;28;20208;-49
2023/04/20 04:05:24;;;;;;;15.23;9.70;;;8.40;44.90;;;;;;5033549;28;20412;-49
2023/04/20 04:07:50;;;;;;;13.63;9.70;;;8.40;44.70;;;;;;5033597;28;20401;-48
2023/04/20 04:10:17;;;;;;;13.35;9.95;;;8.40;44.90;;;;;;5033396;28;20240;-49
2023/04/20 04:12:44;;;;;;;14.30;10.38;;;8.40;45.00;;;;;;5032993;28;20212;-48
2023/04/20 04:15:11;;;;;;;13.65;9.93;;;8.40;44.90;;;;;;5033566;28;20182;-48
2023/04/20 04:17:36;;;;;;;11.55;10.23;;;8.40;44.90;;;;;;5033448;28;20205;-48
2023/04/20 04:20:03;;;;;;;15.70;9.70;;;8.40;45.00;;;;;;5033442;28;20232;-48
2023/04/20 04:22:28;;;;;;;13.25;9.57;;;8.40;45.10;;;;;;5033144;28;20474;-48
2023/04/20 04:24:54;;;;;;;13.77;9.10;;;8.40;44.70;;;;;;5033040;28;20676;-48
2023/04/20 04:27:21;;;;;;;13.00;10.33;;;8.30;44.70;;;;;;5032975;28;20174;-48
2023/04/20 04:29:48;;;;;;;14.00;9.85;;;8.30;44.80;;;;;;5033262;28;20268;-48
2023/04/20 04:32:15;;;;;;;16.42;11.05;;;8.20;45.10;;;;;;5032958;28;20209;-47
2023/04/20 04:34:43;;;;;;;14.02;10.07;;;8.20;45.30;;;;;;5032874;28;20646;-48
2023/04/20 04:37:13;;;;;;;14.32;10.65;;;8.20;45.50;;;;;;5032191;28;20205;-48
2023/04/20 04:39:39;;;;;;;15.38;11.15;;;8.30;45.70;;;;;;5032704;28;20229;-47
2023/04/20 04:42:04;;;;;;;15.00;11.10;;;8.30;45.70;;;;;;5032519;28;20209;-48
2023/04/20 04:44:30;;;;;;;13.17;10.37;;;8.40;45.60;;;;;;5032977;28;20415;-49
2023/04/20 04:46:56;;;;;;;17.10;11.73;;;8.40;45.40;;;;;;5032691;28;20178;-48
2023/04/20 04:49:25;;;;;;;16.37;12.77;;;8.40;45.70;;;;;;5032511;28;20537;-48
2023/04/20 04:51:51;;;;;;;14.80;11.52;;;8.50;45.70;;;;;;5032567;28;20453;-48
2023/04/20 04:54:17;;;;;;;16.70;12.77;;;8.50;45.80;;;;;;5032526;28;20244;-49
2023/04/20 04:56:42;;;;;;;14.47;11.67;;;8.50;46.60;;;;;;5032461;28;20494;-48
2023/04/20 04:59:08;;;;;;;16.50;11.80;;;8.60;45.90;;;;;;5032439;28;20202;-49
2023/04/20 05:01:34;;;;;;;21.23;14.17;;;8.60;45.90;;;;;;5032498;28;20177;-48
2023/04/20 05:04:00;;;;;;;17.43;11.03;;;8.70;45.80;;;;;;5032408;28;20256;-48
2023/04/20 05:06:26;;;;;;;17.17;11.70;;;8.70;45.70;;;;;;5032355;28;20983;-48
2023/04/20 05:08:52;;;;;;;13.63;10.50;;;8.70;45.80;;;;;;5032185;28;20462;-48
2023/04/20 05:11:18;;;;;;;16.90;11.13;;;8.80;45.90;;;;;;5032203;28;20404;-48
2023/04/20 05:13:43;;;;;;;13.97;10.27;;;8.80;45.70;;;;;;5031991;28;20208;-49
2023/04/20 05:16:09;;;;;;;11.70;9.03;;;8.80;45.50;;;;;;5032315;28;20407;-48
2023/04/20 05:18:35;;;;;;;14.80;9.90;;;8.80;44.70;;;;;;5032153;28;20555;-49
2023/04/20 05:21:01;;;;;;;12.27;9.90;;;8.60;44.50;;;;;;5032392;28;20494;-48
2023/04/20 05:23:26;;;;;;;13.20;10.40;;;8.50;44.80;;;;;;5031822;28;20744;-47
2023/04/20 05:25:52;;;;;;;14.67;9.70;;;8.40;45.20;;;;;;5032118;28;20749;-48
2023/04/20 05:28:18;;;;;;;14.07;9.67;;;8.40;45.90;;;;;;5032132;28;20286;-48
2023/04/20 05:30:44;;;;;;;9.80;8.13;;;8.40;46.00;;;;;;5032136;28;20174;-48
2023/04/20 05:33:09;;;;;;;15.90;11.47;;;8.50;46.10;;;;;;5032029;28;20235;-48
2023/04/20 05:35:35;;;;;;;11.67;9.43;;;8.50;45.60;;;;;;5032282;28;20177;-49
2023/04/20 05:38:04;;;;;;;11.47;9.23;;;8.40;45.60;;;;;;5031741;28;20170;-48
2023/04/20 05:40:31;;;;;;;13.50;10.57;;;8.30;45.60;;;;;;5032205;28;20178;-48
2023/04/20 05:42:56;;;;;;;15.13;12.50;;;8.30;46.00;;;;;;5031716;28;20255;-48
2023/04/20 05:45:22;;;;;;;12.70;9.93;;;8.20;46.30;;;;;;5031947;28;20204;-48
2023/04/20 05:47:57;;;;;;;12.50;10.63;;;8.20;46.30;;;;;;5031711;28;20268;-48
2023/04/20 05:50:25;;;;;;;17.13;10.90;;;8.20;46.10;;;;;;5035550;28;20420;-48
2023/04/20 05:52:51;;;;;;;16.00;10.52;;;8.20;46.10;;;;;;5035606;28;20284;-47
2023/04/20 05:55:18;;;;;;;15.80;10.43;;;8.10;46.30;;;;;;5035872;28;20267;-48
2023/04/20 05:57:43;;;;;;;14.73;10.45;;;8.20;46.40;;;;;;5036232;28;20184;-48
2023/04/20 06:00:11;;;;;;;13.97;10.50;;;8.20;46.70;;;;;;5036061;28;20732;-48
2023/04/20 06:02:37;;;;;;;15.75;11.68;;;8.20;46.60;;;;;;5035581;28;20177;-48
2023/04/20 06:05:03;;;;;;;15.37;11.07;;;8.30;46.70;;;;;;5035693;28;20178;-48
2023/04/20 06:07:28;;;;;;;15.83;11.30;;;8.30;46.80;;;;;;5035825;28;20408;-48
2023/04/20 06:09:54;;;;;;;17.70;12.00;;;8.30;46.80;;;;;;5035631;28;20432;-48
2023/04/20 06:12:20;;;;;;;17.37;13.17;;;8.40;46.80;;;;;;5035621;28;20225;-48
2023/04/20 06:14:46;;;;;;;17.75;11.77;;;8.50;46.90;;;;;;5035880;28;20174;-48
2023/04/20 06:17:12;;;;;;;15.30;11.93;;;8.60;46.60;;;;;;5035835;28;20533;-48
2023/04/20 06:19:37;;;;;;;14.33;11.90;;;8.70;46.90;;;;;;5035422;28;20673;-48
2023/04/20 06:22:07;;;;;;;17.90;12.47;;;8.80;46.40;;;;;;5035145;28;20177;-48
2023/04/20 06:24:34;;;;;;;17.35;12.45;;;8.80;45.90;;;;;;5035676;28;20416;-49
2023/04/20 06:27:00;;;;;;;13.45;10.98;;;8.80;46.20;;;;;;5035278;28;20175;-48
2023/04/20 06:29:27;;;;;;;15.18;12.40;;;8.80;46.20;;;;;;5035387;28;20649;-48
2023/04/20 06:31:53;;;;;;;18.02;14.13;;;8.90;46.50;;;;;;5034994;28;20185;-48
2023/04/20 06:34:18;;;;;;;17.90;12.57;;;8.90;46.60;;;;;;5035168;28;20256;-48
2023/04/20 06:36:44;;;;;;;18.73;11.50;;;9.10;46.70;;;;;;5035322;28;20208;-49
2023/04/20 06:39:10;;;;;;;13.13;10.70;;;9.20;46.70;;;;;;5035251;28;20194;-48
2023/04/20 06:41:37;;;;;;;13.90;10.73;;;9.30;46.50;;;;;;5035051;28;20208;-50
2023/04/20 06:44:04;;;;;;;13.60;11.10;;;9.40;46.30;;;;;;5035190;28;20178;-49
2023/04/20 06:46:30;;;;;;;14.10;10.90;;;9.50;46.20;;;;;;5034946;28;20170;-49
2023/04/20 06:48:57;;;;;;;16.90;11.15;;;9.50;46.00;;;;;;5034709;28;20212;-48
2023/04/20 06:51:23;;;;;;;17.20;11.57;;;9.60;46.00;;;;;;5034771;28;20184;-49
2023/04/20 06:53:49;;;;;;;17.08;11.70;;;9.60;45.80;;;;;;5034451;28;20311;-49
2023/04/20 06:56:15;;;;;;;16.47;11.30;;;9.60;45.80;;;;;;5034747;28;20260;-48
2023/04/20 06:58:41;;;;;;;14.47;11.10;;;9.60;45.80;;;;;;5034985;28;20554;-48
2023/04/20 07:01:06;;;;;;;11.97;9.53;;;9.70;46.00;;;;;;5033625;28;20204;-48
2023/04/20 07:03:32;;;;;;;14.20;11.10;;;9.70;45.40;;;;;;5034401;28;20177;-49
2023/04/20 07:05:58;;;;;;;13.80;10.27;;;9.70;44.80;;;;;;5034886;28;20192;-48
2023/04/20 07:08:24;;;;;;;13.17;9.50;;;9.60;44.50;;;;;;5034547;28;20424;-49
2023/04/20 07:10:49;;;;;;;17.20;11.97;;;9.50;44.70;;;;;;5034552;28;20180;-47
2023/04/20 07:13:15;;;;;;;12.47;10.83;;;9.40;44.70;;;;;;5034230;28;20192;-48
2023/04/20 07:15:43;;;;;;;14.53;10.77;;;9.40;45.00;;;;;;5034491;28;20174;-48
2023/04/20 07:18:10;;;;;;;14.15;10.77;;;9.40;45.40;;;;;;5034515;28;20477;-48
2023/04/20 07:20:35;;;;;;;12.75;10.18;;;9.50;45.40;;;;;;5034511;28;20640;-48
2023/04/20 07:23:01;;;;;;;12.03;10.33;;;9.50;45.40;;;;;;5034166;28;20265;-48
2023/04/20 07:25:27;;;;;;;13.53;10.67;;;9.50;45.40;;;;;;5034314;28;20174;-48
2023/04/20 07:27:52;;;;;;;15.53;13.20;;;9.60;45.40;;;;;;5034123;28;20223;-49
2023/04/20 07:30:18;;;;;;;15.77;11.60;;;9.60;45.10;;;;;;5034285;28;20412;-49
2023/04/20 07:32:44;;;;;;;15.40;12.63;;;9.60;45.20;;;;;;5033784;28;20265;-48
2023/04/20 07:35:10;;;;;;;16.63;11.00;;;9.60;45.20;;;;;;5034444;28;20174;-48
2023/04/20 07:37:36;;;;;;;13.67;10.40;;;9.60;45.50;;;;;;5034360;28;20419;-48
2023/04/20 07:40:05;;;;;;;12.87;11.60;;;9.60;45.70;;;;;;5034039;28;20510;-49
2023/04/20 07:42:35;;;;;;;16.63;10.90;;;9.70;45.90;;;;;;5034086;28;20203;-49
2023/04/20 07:45:02;;;;;;;18.75;12.10;;;9.80;45.50;;;;;;5034223;28;20166;-49
2023/04/20 07:47:28;;;;;;;16.08;13.48;;;9.90;45.70;;;;;;5034008;28;20181;-48
2023/04/20 07:49:54;;;;;;;16.43;11.93;;;10.00;45.80;;;;;;5033848;28;20344;-49
2023/04/20 07:52:20;;;;;;;16.30;13.40;;;10.10;45.90;;;;;;5033471;28;20452;-49
2023/04/20 07:54:46;;;;;;;18.53;13.80;;;10.20;45.60;;;;;;5034086;28;20454;-48
2023/04/20 07:57:12;;;;;;;14.10;11.23;;;10.30;45.50;;;;;;5033871;28;20169;-48
2023/04/20 07:59:39;;;;;;;16.70;12.13;;;10.40;45.70;;;;;;5033539;28;20531;-49
2023/04/20 08:02:05;;;;;;;16.85;11.82;;;10.50;45.70;;;;;;5033539;28;20181;-48
2023/04/20 08:04:31;;;;;;;17.40;13.82;;;10.60;45.70;;;;;;5033738;28;20182;-48
2023/04/20 08:06:57;;;;;;;21.20;13.70;;;10.70;45.30;;;;;;5033520;28;20196;-48
2023/04/20 08:09:24;;;;;;;17.73;13.60;;;10.70;44.60;;;;;;5033635;28;20575;-48
2023/04/20 08:11:50;;;;;;;15.88;12.73;;;10.70;44.80;;;;;;5032914;28;20209;-49
2023/04/20 08:14:15;;;;;;;14.60;11.73;;;10.70;44.70;;;;;;5033214;28;20213;-49
2023/04/20 08:16:41;;;;;;;20.73;14.37;;;10.80;45.00;;;;;;5033596;28;20432;-48
2023/04/20 08:19:09;;;;;;;17.33;12.37;;;10.80;45.00;;;;;;5033190;28;20662;-49
2023/04/20 08:21:39;;;;;;;18.50;13.75;;;10.90;44.80;;;;;;5033426;28;20508;-48
2023/04/20 08:24:06;;;;;;;14.65;10.52;;;10.90;44.30;;;;;;5033030;28;20170;-48
2023/04/20 08:26:32;;;;;;;18.35;13.45;;;10.80;44.80;;;;;;5033161;28;20185;-48
2023/04/20 08:28:59;;;;;;;15.60;13.07;;;10.80;44.60;;;;;;5032902;28;20232;-48
2023/04/20 08:31:24;;;;;;;17.80;12.65;;;10.90;44.60;;;;;;5033301;28;20458;-49
2023/04/20 08:33:50;;;;;;;22.33;13.83;;;10.80;44.40;;;;;;5032853;28;20209;-48
2023/04/20 08:36:16;;;;;;;17.93;12.43;;;10.90;45.40;;;;;;5033215;28;20538;-49
2023/04/20 08:38:42;;;;;;;18.87;13.57;;;10.80;45.30;;;;;;5032775;28;20215;-48
2023/04/20 08:41:07;;;;;;;20.43;14.63;;;10.90;45.70;;;;;;5032887;28;20170;-48
2023/04/20 08:43:35;;;;;;;17.53;12.53;;;11.00;45.00;;;;;;5032399;28;20181;-48
2023/04/20 08:46:01;;;;;;;19.48;13.23;;;11.10;44.00;;;;;;5033109;28;20213;-49
2023/04/20 08:48:36;;;;;;;22.27;15.70;;;11.10;44.30;;;;;;5032382;28;20756;-49
2023/04/20 08:51:03;;;;;;;18.83;14.45;;;11.10;44.30;;;;;;5032676;28;20180;-49
2023/04/20 08:53:30;;;;;;;20.23;14.13;;;11.20;44.70;;;;;;5032688;28;20561;-48
2023/04/20 08:55:57;;;;;;;19.15;16.40;;;11.20;45.00;;;;;;5032609;28;20619;-48
2023/04/20 08:58:33;;;;;;;20.65;14.95;;;11.30;44.70;;;;;;5032400;28;20655;-48
2023/04/20 09:01:00;;;;;;;20.40;15.57;;;11.30;44.00;;;;;;5032868;28;20166;-48
2023/04/20 09:03:36;;;;;;;15.50;12.43;;;11.30;44.50;;;;;;5032559;28;20181;-49
2023/04/20 09:06:04;;;;;;;18.10;14.63;;;11.30;44.40;;;;;;5032414;28;20176;-48
2023/04/20 09:08:38;;;;;;;20.05;15.55;;;11.30;44.80;;;;;;5032239;28;20202;-49
2023/04/20 09:11:04;;;;;;;22.63;17.10;;;11.40;45.00;;;;;;5032345;28;20701;-49
2023/04/20 09:13:29;;;;;;;20.40;14.90;;;11.40;44.80;;;;;;5032198;28;20297;-49
2023/04/20 09:15:55;;;;;;;21.50;16.13;;;11.50;44.80;;;;;;5032549;28;20169;-49
2023/04/20 09:18:23;;;;;;;18.40;15.00;;;11.50;44.20;;;;;;5032373;28;20229;-48
2023/04/20 09:20:49;;;;;;;24.30;17.17;;;11.50;44.10;;;;;;5032216;28;20411;-49
2023/04/20 09:23:17;;;;;;;25.35;17.40;;;11.50;44.60;;;;;;5031375;28;20216;-48
2023/04/20 09:25:45;;;;;;;20.10;16.77;;;11.50;44.70;;;;;;5032397;28;20224;-48
2023/04/20 09:28:12;;;;;;;21.25;15.93;;;11.50;45.10;;;;;;5032024;28;20202;-49
2023/04/20 09:30:39;;;;;;;21.02;15.93;;;11.60;45.20;;;;;;5032199;28;20281;-49
2023/04/20 09:33:07;;;;;;;20.33;15.00;;;11.70;45.40;;;;;;5031975;28;20197;-49
2023/04/20 09:35:33;;;;;;;20.73;16.80;;;11.80;45.30;;;;;;5031970;28;20181;-49
2023/04/20 09:37:59;;;;;;;19.05;15.13;;;11.90;45.50;;;;;;5031855;28;20228;-49
2023/04/20 09:40:26;;;;;;;17.80;15.10;;;12.00;45.60;;;;;;5032033;28;20170;-49
2023/04/20 09:43:01;;;;;;;18.55;14.32;;;12.00;45.30;;;;;;5031878;28;20409;-49
2023/04/20 09:45:28;;;;;;;21.65;16.48;;;12.10;45.60;;;;;;5031896;28;20612;-49
2023/04/20 09:47:54;;;;;;;21.77;14.68;;;12.20;45.60;;;;;;5031849;28;20239;-49
2023/04/20 09:50:21;;;;;;;23.33;15.98;;;12.20;45.70;;;;;;5032103;28;20269;-49
2023/04/20 09:52:48;;;;;;;19.70;15.15;;;12.30;45.90;;;;;;5013908;28;20331;-49
2023/04/20 09:55:14;;;;;;;23.92;17.88;;;12.30;45.90;;;;;;5031804;28;20186;-49
2023/04/20 09:57:41;;;;;;;25.55;15.80;;;12.40;45.90;;;;;;5031799;28;20177;-49
2023/04/20 10:00:11;;;;;;;19.33;14.73;;;12.40;45.90;;;;;;5031986;28;20201;-49
2023/04/20 10:02:37;;;;;;;22.05;15.90;;;12.40;44.80;;;;;;5031452;28;20650;-49
2023/04/20 10:05:04;;;;;;;20.10;13.95;;;12.30;45.80;;;;;;5032005;28;20178;-49
2023/04/20 10:07:31;;;;;;;23.88;16.42;;;12.30;44.90;;;;;;5032000;28;20182;-49
2023/04/20 10:10:14;;;;;;;20.05;14.63;;;12.20;45.20;;;;;;5031914;28;20209;-49
2023/04/20 10:12:51;;;;;;;20.92;14.13;;;12.20;45.30;;;;;;5031660;28;20609;-49
2023/04/20 10:15:17;;;;;;;20.30;15.18;;;12.20;45.60;;;;;;5031893;28;20228;-48
2023/04/20 10:17:43;;;;;;;20.45;16.10;;;12.20;45.70;;;;;;5031451;28;20656;-49
2023/04/20 10:20:23;;;;;;;25.48;17.40;;;12.30;46.00;;;;;;5031795;28;20232;-49
2023/04/20 10:22:51;;;;;;;22.52;18.50;;;12.30;45.90;;;;;;5031638;28;20177;-49
2023/04/20 10:25:19;;;;;;;18.33;14.45;;;12.30;45.90;;;;;;5031656;28;20189;-49
2023/04/20 10:28:04;;;;;;;22.42;19.00;;;12.40;45.80;;;;;;5031777;28;20178;-49
2023/04/20 10:30:31;;;;;;;23.58;17.92;;;12.40;46.00;;;;;;5013707;28;20577;-49
2023/04/20 10:33:07;;;;;;;22.20;16.00;;;12.40;46.20;;;;;;5031524;28;20196;-48
2023/04/20 10:35:53;;;;;;;20.48;16.35;;;12.40;45.80;;;;;;5033397;28;20181;-49
2023/04/20 10:38:34;;;;;;;22.08;15.40;;;12.40;45.90;;;;;;5035339;28;20190;-49
2023/04/20 10:41:10;;;;;;;23.05;16.60;;;12.40;46.10;;;;;;5035162;28;20169;-49
2023/04/20 10:43:40;;;;;;;21.77;15.35;;;12.40;46.10;;;;;;5034936;28;20185;-49
2023/04/20 10:46:23;;;;;;;20.75;16.45;;;12.50;45.90;;;;;;5035004;28;20173;-49
2023/04/20 10:48:49;;;;;;;22.50;16.90;;;12.50;45.90;;;;;;5034899;28;20213;-49
2023/04/20 10:51:16;;;;;;;25.30;17.50;;;12.50;46.00;;;;;;5035091;28;20634;-49
2023/04/20 10:53:42;;;;;;;21.67;16.98;;;12.60;46.20;;;;;;5034512;28;20189;-49
2023/04/20 10:56:09;;;;;;;24.90;18.07;;;12.60;45.80;;;;;;5035127;28;20265;-49
2023/04/20 10:58:35;;;;;;;26.95;17.83;;;12.70;45.80;;;;;;5034915;28;20194;-49
2023/04/20 11:01:03;;;;;;;20.67;16.73;;;12.70;45.80;;;;;;5034668;28;20196;-49
2023/04/20 11:03:30;;;;;;;23.05;18.30;;;12.70;45.90;;;;;;5034795;28;20404;-46
2023/04/20 11:06:00;;;;;;;24.27;17.60;;;12.70;45.50;;;;;;5034882;28;20196;-50
2023/04/20 11:08:39;;;;;;;22.25;17.13;;;12.80;45.60;;;;;;5034697;28;20198;-48
2023/04/20 11:11:06;;;;;;;23.50;15.60;;;12.80;45.70;;;;;;5035029;28;20170;-49
2023/04/20 11:13:31;;;;;;;23.88;18.00;;;12.80;45.30;;;;;;5034132;28;20220;-49
2023/04/20 11:15:58;;;;;;;23.57;18.57;;;12.80;45.30;;;;;;5034732;28;20666;-49
2023/04/20 11:18:24;;;;;;;19.88;15.95;;;12.80;45.60;;;;;;5034381;28;20436;-49
2023/04/20 11:20:54;;;;;;;20.77;15.50;;;12.80;45.70;;;;;;5034729;28;20174;-49
2023/04/20 11:23:21;;;;;;;20.70;16.80;;;12.90;45.60;;;;;;5034132;28;20534;-49
2023/04/20 11:25:51;;;;;;;23.08;17.38;;;12.90;45.40;;;;;;5034358;28;20201;-49
2023/04/20 11:28:17;;;;;;;25.20;18.60;;;12.90;45.20;;;;;;5034406;28;20289;-49
2023/04/20 11:30:43;;;;;;;24.50;16.37;;;12.90;45.30;;;;;;5034252;28;20266;-49
2023/04/20 11:33:09;;;;;;;22.53;17.20;;;12.90;45.40;;;;;;5034020;28;20460;-49
2023/04/20 11:35:40;;;;;;;24.23;17.90;;;12.90;45.60;;;;;;5034053;28;20504;-49
2023/04/20 11:38:06;;;;;;;18.55;15.73;;;12.90;45.60;;;;;;5034119;28;20228;-49
2023/04/20 11:40:32;;;;;;;23.38;20.15;;;12.90;45.40;;;;;;5034228;28;20591;-49
2023/04/20 11:43:03;;;;;;;22.25;17.15;;;13.00;45.30;;;;;;5033872;28;20273;-49
2023/04/20 11:45:32;;;;;;;19.52;16.58;;;13.00;45.30;;;;;;5034227;28;20171;-48
2023/04/20 11:47:58;;;;;;;22.95;19.55;;;13.00;45.40;;;;;;5033250;28;20201;-49
2023/04/20 11:50:27;;;;;;;22.77;17.33;;;13.10;45.70;;;;;;5034191;28;20189;-50
2023/04/20 11:52:53;;;;;;;24.85;17.42;;;13.10;45.40;;;;;;5033507;28;20209;-49
2023/04/20 11:55:19;;;;;;;27.37;24.53;;;13.10;45.50;;;;;;5033664;28;20182;-48
2023/04/20 11:57:45;;;;;;;32.40;29.20;;;13.20;45.20;;;;;;5033940;28;20174;-49
2023/04/20 12:00:11;;;;;;;21.63;18.03;;;13.20;45.30;;;;;;5033816;28;20222;-48
2023/04/20 12:02:37;;;;;;;24.05;20.83;;;13.20;45.00;;;;;;5033564;28;20269;-49
2023/04/20 12:05:03;;;;;;;22.87;18.77;;;13.20;45.20;;;;;;5033714;28;20634;-49
2023/04/20 12:07:30;;;;;;;27.77;20.38;;;13.20;45.10;;;;;;5033455;28;20272;-49
2023/04/20 12:09:55;;;;;;;22.48;19.88;;;13.20;45.20;;;;;;5033625;28;20198;-49
2023/04/20 12:12:22;;;;;;;21.80;19.20;;;13.20;45.30;;;;;;5033416;28;20565;-49
2023/04/20 12:14:48;;;;;;;24.60;19.75;;;13.20;45.30;;;;;;5033517;28;20170;-49
2023/04/20 12:17:13;;;;;;;25.20;21.17;;;13.20;45.30;;;;;;5033348;28;20169;-48
2023/04/20 12:19:39;;;;;;;24.00;19.77;;;13.20;45.60;;;;;;5033253;28;20279;-49
2023/04/20 12:22:05;;;;;;;26.80;21.83;;;13.30;46.00;;;;;;5033067;28;20170;-50
2023/04/20 12:24:30;;;;;;;26.97;23.17;;;13.40;45.90;;;;;;5033497;28;20694;-50
2023/04/20 12:26:58;;;;;;;27.20;21.33;;;13.40;46.00;;;;;;5033535;28;20542;-49
2023/04/20 12:29:23;;;;;;;30.42;20.95;;;13.50;46.00;;;;;;5033318;28;20221;-48
2023/04/20 12:31:49;;;;;;;26.70;21.87;;;13.60;45.90;;;;;;5032873;28;20202;-49
2023/04/20 12:34:15;;;;;;;26.33;19.50;;;13.60;45.80;;;;;;5033200;28;20420;-49
2023/04/20 12:36:41;;;;;;;25.03;20.33;;;13.60;45.70;;;;;;5032948;28;20650;-50